sensor_id;sensor_type;location;lat;lon;timestamp;P1;durP1;ratioP1;P2;durP2;ratioP2
30515;SDS011;17297;54.022;10.760;2022-09-30T00:01:39;4.35;;;3.30;;
30515;SDS011;17297;54.022;10.760;2022-09-30T00:04:05;4.38;;;3.90;;
30515;SDS011;17297;54.022;10.760;2022-09-30T00:06:33;6.40;;;4.63;;
30515;SDS011;17297;54.022;10.760;2022-09-30T00:08:59;5.40;;;3.80;;
30515;SDS011;17297;54.022;10.760;2022-09-30T00:11:27;4.80;;;4.03;;
30515;SDS011;17297;54.022;10.760;2022-09-30T00:13:54;4.80;;;4.28;;
30515;SDS011;17297;54.022;10.760;2022-09-30T00:16:21;5.13;;;4.18;;
30515;SDS011;17297;54.022;10.760;2022-09-30T00:18:48;4.57;;;3.75;;
30515;SDS011;17297;54.022;10.760;2022-09-30T00:21:14;4.35;;;3.60;;
30515;SDS011;17297;54.022;10.760;2022-09-30T00:23:40;5.15;;;3.88;;
30515;SDS011;17297;54.022;10.760;2022-09-30T00:26:07;4.50;;;4.07;;
30515;SDS011;17297;54.022;10.760;2022-09-30T00:28:37;3.92;;;3.33;;
30515;SDS011;17297;54.022;10.760;2022-09-30T00:31:03;4.80;;;3.70;;
30515;SDS011;17297;54.022;10.760;2022-09-30T00:33:30;4.10;;;3.33;;
30515;SDS011;17297;54.022;10.760;2022-09-30T00:35:56;4.43;;;3.55;;
30515;SDS011;17297;54.022;10.760;2022-09-30T00:38:21;4.88;;;3.95;;
30515;SDS011;17297;54.022;10.760;2022-09-30T00:40:47;3.65;;;3.22;;
30515;SDS011;17297;54.022;10.760;2022-09-30T00:43:15;4.45;;;4.03;;
30515;SDS011;17297;54.022;10.760;2022-09-30T00:45:47;5.03;;;4.18;;
30515;SDS011;17297;54.022;10.760;2022-09-30T00:48:18;4.47;;;3.78;;
30515;SDS011;17297;54.022;10.760;2022-09-30T00:50:47;4.25;;;3.42;;
30515;SDS011;17297;54.022;10.760;2022-09-30T00:53:29;4.07;;;3.60;;
30515;SDS011;17297;54.022;10.760;2022-09-30T00:56:02;4.00;;;3.60;;
30515;SDS011;17297;54.022;10.760;2022-09-30T00:58:49;4.80;;;3.40;;
30515;SDS011;17297;54.022;10.760;2022-09-30T01:01:20;4.53;;;3.72;;
30515;SDS011;17297;54.022;10.760;2022-09-30T01:03:47;5.05;;;3.67;;
30515;SDS011;17297;54.022;10.760;2022-09-30T01:06:16;4.85;;;2.95;;
30515;SDS011;17297;54.022;10.760;2022-09-30T01:08:43;5.38;;;4.88;;
30515;SDS011;17297;54.022;10.760;2022-09-30T01:11:09;4.22;;;3.40;;
30515;SDS011;17297;54.022;10.760;2022-09-30T01:13:35;4.18;;;3.78;;
30515;SDS011;17297;54.022;10.760;2022-09-30T01:16:05;3.00;;;2.70;;
30515;SDS011;17297;54.022;10.760;2022-09-30T01:32:27;4.97;;;3.67;;
30515;SDS011;17297;54.022;10.760;2022-09-30T01:38:00;5.15;;;3.50;;
30515;SDS011;17297;54.022;10.760;2022-09-30T01:40:42;3.90;;;3.55;;
30515;SDS011;17297;54.022;10.760;2022-09-30T01:43:24;3.85;;;3.33;;
30515;SDS011;17297;54.022;10.760;2022-09-30T01:45:59;3.92;;;3.53;;
30515;SDS011;17297;54.022;10.760;2022-09-30T01:48:38;5.13;;;4.13;;
30515;SDS011;17297;54.022;10.760;2022-09-30T01:51:19;5.13;;;3.70;;
30515;SDS011;17297;54.022;10.760;2022-09-30T01:53:57;5.10;;;3.90;;
30515;SDS011;17297;54.022;10.760;2022-09-30T01:56:29;5.22;;;4.28;;
30515;SDS011;17297;54.022;10.760;2022-09-30T01:59:13;3.05;;;2.75;;
30515;SDS011;17297;54.022;10.760;2022-09-30T02:01:47;3.97;;;2.80;;
30515;SDS011;17297;54.022;10.760;2022-09-30T02:04:19;5.80;;;3.65;;
30515;SDS011;17297;54.022;10.760;2022-09-30T02:06:51;4.60;;;3.80;;
30515;SDS011;17297;54.022;10.760;2022-09-30T02:09:31;4.22;;;3.63;;
30515;SDS011;17297;54.022;10.760;2022-09-30T02:12:03;5.90;;;3.47;;
30515;SDS011;17297;54.022;10.760;2022-09-30T02:17:26;5.55;;;4.03;;
30515;SDS011;17297;54.022;10.760;2022-09-30T02:19:58;7.40;;;5.07;;
30515;SDS011;17297;54.022;10.760;2022-09-30T02:22:35;7.07;;;4.68;;
30515;SDS011;17297;54.022;10.760;2022-09-30T02:25:07;7.45;;;5.03;;
30515;SDS011;17297;54.022;10.760;2022-09-30T02:27:38;7.07;;;4.85;;
30515;SDS011;17297;54.022;10.760;2022-09-30T02:30:08;6.35;;;4.97;;
30515;SDS011;17297;54.022;10.760;2022-09-30T02:32:38;8.88;;;5.57;;
30515;SDS011;17297;54.022;10.760;2022-09-30T02:35:29;7.43;;;5.63;;
30515;SDS011;17297;54.022;10.760;2022-09-30T02:38:00;9.48;;;6.25;;
30515;SDS011;17297;54.022;10.760;2022-09-30T02:40:30;10.57;;;6.22;;
30515;SDS011;17297;54.022;10.760;2022-09-30T02:43:07;9.45;;;6.97;;
30515;SDS011;17297;54.022;10.760;2022-09-30T02:45:37;9.65;;;6.15;;
30515;SDS011;17297;54.022;10.760;2022-09-30T02:48:14;10.93;;;6.47;;
30515;SDS011;17297;54.022;10.760;2022-09-30T02:53:34;10.43;;;6.10;;
30515;SDS011;17297;54.022;10.760;2022-09-30T02:58:54;9.23;;;6.05;;
30515;SDS011;17297;54.022;10.760;2022-09-30T03:01:21;9.10;;;6.68;;
30515;SDS011;17297;54.022;10.760;2022-09-30T03:03:58;7.30;;;5.53;;
30515;SDS011;17297;54.022;10.760;2022-09-30T03:06:31;13.13;;;7.07;;
30515;SDS011;17297;54.022;10.760;2022-09-30T03:08:59;8.82;;;6.63;;
30515;SDS011;17297;54.022;10.760;2022-09-30T03:11:26;10.50;;;7.35;;
30515;SDS011;17297;54.022;10.760;2022-09-30T03:13:54;11.38;;;8.38;;
30515;SDS011;17297;54.022;10.760;2022-09-30T03:17:04;10.88;;;6.53;;
30515;SDS011;17297;54.022;10.760;2022-09-30T03:19:58;11.32;;;7.75;;
30515;SDS011;17297;54.022;10.760;2022-09-30T03:22:52;9.00;;;6.68;;
30515;SDS011;17297;54.022;10.760;2022-09-30T03:25:40;11.65;;;7.28;;
30515;SDS011;17297;54.022;10.760;2022-09-30T03:28:18;11.57;;;7.80;;
30515;SDS011;17297;54.022;10.760;2022-09-30T03:33:29;13.52;;;8.27;;
30515;SDS011;17297;54.022;10.760;2022-09-30T03:36:03;13.68;;;9.43;;
30515;SDS011;17297;54.022;10.760;2022-09-30T03:38:42;12.32;;;7.90;;
30515;SDS011;17297;54.022;10.760;2022-09-30T03:41:16;10.98;;;7.00;;
30515;SDS011;17297;54.022;10.760;2022-09-30T03:43:56;9.25;;;6.60;;
30515;SDS011;17297;54.022;10.760;2022-09-30T03:46:44;13.85;;;7.63;;
30515;SDS011;17297;54.022;10.760;2022-09-30T03:51:42;8.75;;;5.95;;
30515;SDS011;17297;54.022;10.760;2022-09-30T03:54:08;9.60;;;6.97;;
30515;SDS011;17297;54.022;10.760;2022-09-30T03:56:35;9.88;;;6.63;;
30515;SDS011;17297;54.022;10.760;2022-09-30T03:59:09;9.02;;;6.35;;
30515;SDS011;17297;54.022;10.760;2022-09-30T04:01:36;10.60;;;6.95;;
30515;SDS011;17297;54.022;10.760;2022-09-30T04:04:03;8.27;;;5.93;;
30515;SDS011;17297;54.022;10.760;2022-09-30T04:06:28;9.15;;;5.70;;
30515;SDS011;17297;54.022;10.760;2022-09-30T04:08:54;10.77;;;7.32;;
30515;SDS011;17297;54.022;10.760;2022-09-30T04:11:19;9.48;;;6.32;;
30515;SDS011;17297;54.022;10.760;2022-09-30T04:13:45;10.95;;;8.57;;
30515;SDS011;17297;54.022;10.760;2022-09-30T04:16:10;11.25;;;7.93;;
30515;SDS011;17297;54.022;10.760;2022-09-30T04:18:36;8.63;;;6.13;;
30515;SDS011;17297;54.022;10.760;2022-09-30T04:21:08;10.15;;;7.70;;
30515;SDS011;17297;54.022;10.760;2022-09-30T04:23:35;9.32;;;6.75;;
30515;SDS011;17297;54.022;10.760;2022-09-30T04:26:02;11.18;;;7.40;;
30515;SDS011;17297;54.022;10.760;2022-09-30T04:28:29;11.05;;;7.43;;
30515;SDS011;17297;54.022;10.760;2022-09-30T04:30:57;11.02;;;8.18;;
30515;SDS011;17297;54.022;10.760;2022-09-30T04:33:23;10.98;;;6.93;;
30515;SDS011;17297;54.022;10.760;2022-09-30T04:35:51;8.60;;;6.28;;
30515;SDS011;17297;54.022;10.760;2022-09-30T04:38:17;7.63;;;5.63;;
30515;SDS011;17297;54.022;10.760;2022-09-30T04:40:43;7.57;;;6.20;;
30515;SDS011;17297;54.022;10.760;2022-09-30T04:43:08;8.30;;;6.10;;
30515;SDS011;17297;54.022;10.760;2022-09-30T04:45:33;7.32;;;6.20;;
30515;SDS011;17297;54.022;10.760;2022-09-30T04:47:59;9.05;;;6.00;;
30515;SDS011;17297;54.022;10.760;2022-09-30T04:50:24;6.85;;;5.95;;
30515;SDS011;17297;54.022;10.760;2022-09-30T04:52:50;6.97;;;5.72;;
30515;SDS011;17297;54.022;10.760;2022-09-30T04:55:15;6.82;;;5.50;;
30515;SDS011;17297;54.022;10.760;2022-09-30T04:57:43;6.43;;;5.28;;
30515;SDS011;17297;54.022;10.760;2022-09-30T05:00:09;6.43;;;4.82;;
30515;SDS011;17297;54.022;10.760;2022-09-30T05:02:35;7.32;;;5.65;;
30515;SDS011;17297;54.022;10.760;2022-09-30T05:05:01;5.40;;;4.40;;
30515;SDS011;17297;54.022;10.760;2022-09-30T05:07:29;7.35;;;5.35;;
30515;SDS011;17297;54.022;10.760;2022-09-30T05:09:55;5.85;;;5.25;;
30515;SDS011;17297;54.022;10.760;2022-09-30T05:12:20;7.40;;;5.05;;
30515;SDS011;17297;54.022;10.760;2022-09-30T05:14:46;7.25;;;5.78;;
30515;SDS011;17297;54.022;10.760;2022-09-30T05:17:11;5.85;;;4.80;;
30515;SDS011;17297;54.022;10.760;2022-09-30T05:19:36;7.10;;;5.75;;
30515;SDS011;17297;54.022;10.760;2022-09-30T05:22:02;5.45;;;4.78;;
30515;SDS011;17297;54.022;10.760;2022-09-30T05:24:27;6.43;;;5.18;;
30515;SDS011;17297;54.022;10.760;2022-09-30T05:26:54;7.82;;;6.53;;
30515;SDS011;17297;54.022;10.760;2022-09-30T05:29:20;6.35;;;5.18;;
30515;SDS011;17297;54.022;10.760;2022-09-30T05:31:45;6.07;;;5.20;;
30515;SDS011;17297;54.022;10.760;2022-09-30T05:34:11;8.13;;;6.40;;
30515;SDS011;17297;54.022;10.760;2022-09-30T05:36:36;6.25;;;5.65;;
30515;SDS011;17297;54.022;10.760;2022-09-30T05:39:01;7.78;;;6.82;;
30515;SDS011;17297;54.022;10.760;2022-09-30T05:41:27;6.20;;;5.40;;
30515;SDS011;17297;54.022;10.760;2022-09-30T05:43:52;5.25;;;4.72;;
30515;SDS011;17297;54.022;10.760;2022-09-30T05:46:18;6.75;;;5.60;;
30515;SDS011;17297;54.022;10.760;2022-09-30T05:48:43;7.50;;;5.50;;
30515;SDS011;17297;54.022;10.760;2022-09-30T05:51:09;7.35;;;5.72;;
30515;SDS011;17297;54.022;10.760;2022-09-30T05:53:36;7.13;;;5.45;;
30515;SDS011;17297;54.022;10.760;2022-09-30T05:56:03;6.32;;;5.13;;
30515;SDS011;17297;54.022;10.760;2022-09-30T05:58:29;6.65;;;5.80;;
30515;SDS011;17297;54.022;10.760;2022-09-30T06:00:55;7.13;;;5.78;;
30515;SDS011;17297;54.022;10.760;2022-09-30T06:03:20;7.18;;;4.90;;
30515;SDS011;17297;54.022;10.760;2022-09-30T06:05:46;7.65;;;5.43;;
30515;SDS011;17297;54.022;10.760;2022-09-30T06:08:12;5.78;;;5.03;;
30515;SDS011;17297;54.022;10.760;2022-09-30T06:10:41;5.65;;;5.15;;
30515;SDS011;17297;54.022;10.760;2022-09-30T06:13:08;6.78;;;5.40;;
30515;SDS011;17297;54.022;10.760;2022-09-30T06:15:34;7.45;;;6.45;;
30515;SDS011;17297;54.022;10.760;2022-09-30T06:18:02;7.38;;;5.68;;
30515;SDS011;17297;54.022;10.760;2022-09-30T06:20:27;6.60;;;5.40;;
30515;SDS011;17297;54.022;10.760;2022-09-30T06:22:52;6.18;;;5.25;;
30515;SDS011;17297;54.022;10.760;2022-09-30T06:25:18;5.30;;;4.75;;
30515;SDS011;17297;54.022;10.760;2022-09-30T06:27:44;7.65;;;6.15;;
30515;SDS011;17297;54.022;10.760;2022-09-30T06:30:10;6.82;;;5.18;;
30515;SDS011;17297;54.022;10.760;2022-09-30T06:32:36;6.25;;;5.53;;
30515;SDS011;17297;54.022;10.760;2022-09-30T06:35:02;6.22;;;5.25;;
30515;SDS011;17297;54.022;10.760;2022-09-30T06:37:28;7.97;;;5.68;;
30515;SDS011;17297;54.022;10.760;2022-09-30T06:39:53;5.57;;;4.93;;
30515;SDS011;17297;54.022;10.760;2022-09-30T06:42:19;4.93;;;4.43;;
30515;SDS011;17297;54.022;10.760;2022-09-30T06:44:45;8.98;;;6.10;;
30515;SDS011;17297;54.022;10.760;2022-09-30T06:47:13;6.25;;;5.40;;
30515;SDS011;17297;54.022;10.760;2022-09-30T06:49:39;5.80;;;5.00;;
30515;SDS011;17297;54.022;10.760;2022-09-30T06:52:05;5.93;;;5.28;;
30515;SDS011;17297;54.022;10.760;2022-09-30T06:54:30;5.53;;;4.53;;
30515;SDS011;17297;54.022;10.760;2022-09-30T06:56:56;7.22;;;5.50;;
30515;SDS011;17297;54.022;10.760;2022-09-30T06:59:22;7.47;;;5.75;;
30515;SDS011;17297;54.022;10.760;2022-09-30T07:01:48;5.40;;;4.82;;
30515;SDS011;17297;54.022;10.760;2022-09-30T07:04:14;5.85;;;5.15;;
30515;SDS011;17297;54.022;10.760;2022-09-30T07:06:40;7.22;;;5.82;;
30515;SDS011;17297;54.022;10.760;2022-09-30T07:09:06;5.55;;;4.68;;
30515;SDS011;17297;54.022;10.760;2022-09-30T07:11:32;6.57;;;4.75;;
30515;SDS011;17297;54.022;10.760;2022-09-30T07:13:57;7.53;;;5.50;;
30515;SDS011;17297;54.022;10.760;2022-09-30T07:16:23;6.85;;;5.53;;
30515;SDS011;17297;54.022;10.760;2022-09-30T07:18:49;7.13;;;4.72;;
30515;SDS011;17297;54.022;10.760;2022-09-30T07:21:15;6.38;;;5.07;;
30515;SDS011;17297;54.022;10.760;2022-09-30T07:23:42;7.32;;;4.65;;
30515;SDS011;17297;54.022;10.760;2022-09-30T07:26:15;6.95;;;5.28;;
30515;SDS011;17297;54.022;10.760;2022-09-30T07:28:42;4.85;;;4.35;;
30515;SDS011;17297;54.022;10.760;2022-09-30T07:31:12;5.75;;;4.60;;
30515;SDS011;17297;54.022;10.760;2022-09-30T07:33:44;5.03;;;4.22;;
30515;SDS011;17297;54.022;10.760;2022-09-30T07:36:10;4.72;;;4.22;;
30515;SDS011;17297;54.022;10.760;2022-09-30T07:38:38;5.00;;;4.45;;
30515;SDS011;17297;54.022;10.760;2022-09-30T07:41:12;4.80;;;4.40;;
30515;SDS011;17297;54.022;10.760;2022-09-30T07:43:39;5.20;;;4.47;;
30515;SDS011;17297;54.022;10.760;2022-09-30T07:46:09;6.00;;;4.53;;
30515;SDS011;17297;54.022;10.760;2022-09-30T07:48:37;5.50;;;4.70;;
30515;SDS011;17297;54.022;10.760;2022-09-30T07:51:27;5.65;;;4.80;;
30515;SDS011;17297;54.022;10.760;2022-09-30T07:53:56;5.45;;;4.85;;
30515;SDS011;17297;54.022;10.760;2022-09-30T07:56:23;5.40;;;4.85;;
30515;SDS011;17297;54.022;10.760;2022-09-30T07:58:57;6.25;;;5.25;;
30515;SDS011;17297;54.022;10.760;2022-09-30T08:01:24;5.47;;;4.63;;
30515;SDS011;17297;54.022;10.760;2022-09-30T08:03:54;5.63;;;4.32;;
30515;SDS011;17297;54.022;10.760;2022-09-30T08:06:21;5.82;;;4.40;;
30515;SDS011;17297;54.022;10.760;2022-09-30T08:08:49;5.70;;;4.65;;
30515;SDS011;17297;54.022;10.760;2022-09-30T08:11:15;5.85;;;4.90;;
30515;SDS011;17297;54.022;10.760;2022-09-30T08:13:41;4.50;;;4.05;;
30515;SDS011;17297;54.022;10.760;2022-09-30T08:16:06;4.68;;;3.88;;
30515;SDS011;17297;54.022;10.760;2022-09-30T08:18:32;4.47;;;3.92;;
30515;SDS011;17297;54.022;10.760;2022-09-30T08:21:02;5.47;;;4.30;;
30515;SDS011;17297;54.022;10.760;2022-09-30T08:23:28;4.63;;;3.72;;
30515;SDS011;17297;54.022;10.760;2022-09-30T08:26:04;4.97;;;3.88;;
30515;SDS011;17297;54.022;10.760;2022-09-30T08:28:31;4.28;;;3.72;;
30515;SDS011;17297;54.022;10.760;2022-09-30T08:31:07;4.32;;;3.92;;
30515;SDS011;17297;54.022;10.760;2022-09-30T08:33:34;4.47;;;3.45;;
30515;SDS011;17297;54.022;10.760;2022-09-30T08:36:04;5.20;;;4.30;;
30515;SDS011;17297;54.022;10.760;2022-09-30T08:38:30;5.22;;;4.03;;
30515;SDS011;17297;54.022;10.760;2022-09-30T08:49:22;3.85;;;3.33;;
30515;SDS011;17297;54.022;10.760;2022-09-30T08:51:50;4.05;;;3.55;;
30515;SDS011;17297;54.022;10.760;2022-09-30T08:54:18;3.88;;;3.47;;
30515;SDS011;17297;54.022;10.760;2022-09-30T08:56:47;4.75;;;3.40;;
30515;SDS011;17297;54.022;10.760;2022-09-30T09:04:40;4.90;;;2.90;;
30515;SDS011;17297;54.022;10.760;2022-09-30T09:07:29;4.07;;;2.90;;
30515;SDS011;17297;54.022;10.760;2022-09-30T09:10:20;3.90;;;2.50;;
30515;SDS011;17297;54.022;10.760;2022-09-30T09:21:03;2.10;;;1.85;;
30515;SDS011;17297;54.022;10.760;2022-09-30T09:23:50;2.40;;;2.20;;
30515;SDS011;17297;54.022;10.760;2022-09-30T09:26:17;2.60;;;1.95;;
30515;SDS011;17297;54.022;10.760;2022-09-30T09:28:52;2.38;;;2.17;;
30515;SDS011;17297;54.022;10.760;2022-09-30T09:31:27;2.85;;;2.08;;
30515;SDS011;17297;54.022;10.760;2022-09-30T09:33:54;2.17;;;1.70;;
30515;SDS011;17297;54.022;10.760;2022-09-30T09:39:26;2.05;;;1.80;;
30515;SDS011;17297;54.022;10.760;2022-09-30T09:45:22;2.50;;;2.15;;
30515;SDS011;17297;54.022;10.760;2022-09-30T09:47:54;2.50;;;1.55;;
30515;SDS011;17297;54.022;10.760;2022-09-30T09:50:22;2.67;;;1.60;;
30515;SDS011;17297;54.022;10.760;2022-09-30T09:55:42;3.15;;;1.40;;
30515;SDS011;17297;54.022;10.760;2022-09-30T09:58:12;2.45;;;1.60;;
30515;SDS011;17297;54.022;10.760;2022-09-30T10:00:40;1.90;;;1.58;;
30515;SDS011;17297;54.022;10.760;2022-09-30T10:03:22;1.58;;;1.30;;
30515;SDS011;17297;54.022;10.760;2022-09-30T10:08:28;2.13;;;1.92;;
30515;SDS011;17297;54.022;10.760;2022-09-30T10:11:06;1.38;;;1.20;;
30515;SDS011;17297;54.022;10.760;2022-09-30T10:13:42;1.50;;;1.15;;
30515;SDS011;17297;54.022;10.760;2022-09-30T10:18:53;1.33;;;1.23;;
30515;SDS011;17297;54.022;10.760;2022-09-30T10:21:23;2.67;;;1.58;;
30515;SDS011;17297;54.022;10.760;2022-09-30T10:23:50;1.25;;;1.10;;
30515;SDS011;17297;54.022;10.760;2022-09-30T10:28:56;1.35;;;1.25;;
30515;SDS011;17297;54.022;10.760;2022-09-30T10:31:26;1.33;;;0.88;;
30515;SDS011;17297;54.022;10.760;2022-09-30T10:36:33;1.13;;;1.02;;
30515;SDS011;17297;54.022;10.760;2022-09-30T10:39:02;1.13;;;1.13;;
30515;SDS011;17297;54.022;10.760;2022-09-30T10:41:32;0.95;;;0.93;;
30515;SDS011;17297;54.022;10.760;2022-09-30T10:44:06;1.95;;;1.00;;
30515;SDS011;17297;54.022;10.760;2022-09-30T10:46:39;1.10;;;1.00;;
30515;SDS011;17297;54.022;10.760;2022-09-30T10:49:11;1.02;;;0.93;;
30515;SDS011;17297;54.022;10.760;2022-09-30T10:51:48;1.75;;;0.98;;
30515;SDS011;17297;54.022;10.760;2022-09-30T10:54:34;1.25;;;1.15;;
30515;SDS011;17297;54.022;10.760;2022-09-30T10:57:00;1.15;;;1.05;;
30515;SDS011;17297;54.022;10.760;2022-09-30T10:59:34;1.15;;;0.95;;
30515;SDS011;17297;54.022;10.760;2022-09-30T11:02:04;2.15;;;1.08;;
30515;SDS011;17297;54.022;10.760;2022-09-30T11:04:47;1.30;;;1.20;;
30515;SDS011;17297;54.022;10.760;2022-09-30T11:07:29;1.63;;;1.52;;
30515;SDS011;17297;54.022;10.760;2022-09-30T11:10:02;1.63;;;1.50;;
30515;SDS011;17297;54.022;10.760;2022-09-30T11:15:19;1.98;;;1.17;;
30515;SDS011;17297;54.022;10.760;2022-09-30T11:20:30;1.20;;;1.10;;
30515;SDS011;17297;54.022;10.760;2022-09-30T11:23:00;1.15;;;1.05;;
30515;SDS011;17297;54.022;10.760;2022-09-30T11:25:35;1.30;;;1.20;;
30515;SDS011;17297;54.022;10.760;2022-09-30T11:28:13;1.98;;;1.20;;
30515;SDS011;17297;54.022;10.760;2022-09-30T11:30:55;2.08;;;1.33;;
30515;SDS011;17297;54.022;10.760;2022-09-30T11:38:35;1.20;;;1.10;;
30515;SDS011;17297;54.022;10.760;2022-09-30T11:46:42;0.90;;;0.90;;
30515;SDS011;17297;54.022;10.760;2022-09-30T11:49:17;1.50;;;1.17;;
30515;SDS011;17297;54.022;10.760;2022-09-30T11:52:04;1.17;;;0.82;;
30515;SDS011;17297;54.022;10.760;2022-09-30T11:57:38;2.00;;;0.90;;
30515;SDS011;17297;54.022;10.760;2022-09-30T12:00:41;1.20;;;0.95;;
30515;SDS011;17297;54.022;10.760;2022-09-30T12:03:12;1.10;;;1.05;;
30515;SDS011;17297;54.022;10.760;2022-09-30T12:05:51;0.87;;;0.83;;
30515;SDS011;17297;54.022;10.760;2022-09-30T12:08:27;1.08;;;1.02;;
30515;SDS011;17297;54.022;10.760;2022-09-30T12:13:23;1.00;;;0.90;;
30515;SDS011;17297;54.022;10.760;2022-09-30T12:15:53;1.05;;;1.00;;
30515;SDS011;17297;54.022;10.760;2022-09-30T12:18:23;0.93;;;0.90;;
30515;SDS011;17297;54.022;10.760;2022-09-30T12:20:57;1.40;;;1.00;;
30515;SDS011;17297;54.022;10.760;2022-09-30T12:23:27;1.08;;;1.00;;
30515;SDS011;17297;54.022;10.760;2022-09-30T12:25:58;1.23;;;1.13;;
30515;SDS011;17297;54.022;10.760;2022-09-30T12:45:38;1.13;;;0.90;;
30515;SDS011;17297;54.022;10.760;2022-09-30T12:48:25;1.92;;;1.05;;
30515;SDS011;17297;54.022;10.760;2022-09-30T12:50:56;1.50;;;1.23;;
30515;SDS011;17297;54.022;10.760;2022-09-30T12:53:24;1.42;;;1.30;;
30515;SDS011;17297;54.022;10.760;2022-09-30T12:56:11;1.20;;;1.00;;
30515;SDS011;17297;54.022;10.760;2022-09-30T12:58:43;1.02;;;1.00;;
30515;SDS011;17297;54.022;10.760;2022-09-30T13:01:15;1.95;;;1.15;;
30515;SDS011;17297;54.022;10.760;2022-09-30T13:03:48;0.80;;;0.73;;
30515;SDS011;17297;54.022;10.760;2022-09-30T13:17:20;1.63;;;1.17;;
30515;SDS011;17297;54.022;10.760;2022-09-30T13:19:51;0.90;;;0.90;;
30515;SDS011;17297;54.022;10.760;2022-09-30T13:32:44;0.70;;;0.70;;
30515;SDS011;17297;54.022;10.760;2022-09-30T13:35:32;1.40;;;1.00;;
30515;SDS011;17297;54.022;10.760;2022-09-30T13:46:27;0.80;;;0.80;;
30515;SDS011;17297;54.022;10.760;2022-09-30T13:48:59;1.05;;;1.05;;
30515;SDS011;17297;54.022;10.760;2022-09-30T13:51:34;2.15;;;1.35;;
30515;SDS011;17297;54.022;10.760;2022-09-30T13:54:05;0.90;;;0.90;;
30515;SDS011;17297;54.022;10.760;2022-09-30T13:56:36;0.70;;;0.70;;
30515;SDS011;17297;54.022;10.760;2022-09-30T13:59:11;0.82;;;0.82;;
30515;SDS011;17297;54.022;10.760;2022-09-30T14:10:17;1.13;;;0.75;;
30515;SDS011;17297;54.022;10.760;2022-09-30T14:18:20;0.73;;;0.73;;
30515;SDS011;17297;54.022;10.760;2022-09-30T14:21:01;0.90;;;0.80;;
30515;SDS011;17297;54.022;10.760;2022-09-30T14:23:39;1.52;;;0.90;;
30515;SDS011;17297;54.022;10.760;2022-09-30T14:29:34;1.77;;;0.80;;
30515;SDS011;17297;54.022;10.760;2022-09-30T14:32:09;1.00;;;0.98;;
30515;SDS011;17297;54.022;10.760;2022-09-30T14:34:36;0.90;;;0.90;;
30515;SDS011;17297;54.022;10.760;2022-09-30T14:37:02;1.00;;;0.90;;
30515;SDS011;17297;54.022;10.760;2022-09-30T14:39:29;1.13;;;1.00;;
30515;SDS011;17297;54.022;10.760;2022-09-30T14:41:57;0.93;;;0.90;;
30515;SDS011;17297;54.022;10.760;2022-09-30T14:44:26;1.45;;;0.88;;
30515;SDS011;17297;54.022;10.760;2022-09-30T14:46:58;0.80;;;0.80;;
30515;SDS011;17297;54.022;10.760;2022-09-30T14:49:26;0.98;;;0.80;;
30515;SDS011;17297;54.022;10.760;2022-09-30T14:51:59;1.50;;;1.10;;
30515;SDS011;17297;54.022;10.760;2022-09-30T14:54:27;1.52;;;1.42;;
30515;SDS011;17297;54.022;10.760;2022-09-30T14:56:55;1.75;;;1.00;;
30515;SDS011;17297;54.022;10.760;2022-09-30T14:59:22;0.93;;;0.93;;
30515;SDS011;17297;54.022;10.760;2022-09-30T15:01:51;1.23;;;1.13;;
30515;SDS011;17297;54.022;10.760;2022-09-30T15:04:29;1.70;;;1.40;;
30515;SDS011;17297;54.022;10.760;2022-09-30T15:06:57;1.23;;;1.13;;
30515;SDS011;17297;54.022;10.760;2022-09-30T15:09:34;2.22;;;1.10;;
30515;SDS011;17297;54.022;10.760;2022-09-30T15:12:23;1.20;;;1.10;;
30515;SDS011;17297;54.022;10.760;2022-09-30T15:14:58;1.67;;;1.33;;
30515;SDS011;17297;54.022;10.760;2022-09-30T15:17:24;1.70;;;1.60;;
30515;SDS011;17297;54.022;10.760;2022-09-30T15:19:55;1.20;;;1.00;;
30515;SDS011;17297;54.022;10.760;2022-09-30T15:22:22;1.30;;;1.20;;
30515;SDS011;17297;54.022;10.760;2022-09-30T15:24:50;1.13;;;1.02;;
30515;SDS011;17297;54.022;10.760;2022-09-30T15:27:30;1.27;;;1.17;;
30515;SDS011;17297;54.022;10.760;2022-09-30T15:30:00;1.38;;;1.27;;
30515;SDS011;17297;54.022;10.760;2022-09-30T15:32:32;0.93;;;0.93;;
30515;SDS011;17297;54.022;10.760;2022-09-30T15:35:31;0.93;;;0.93;;
30515;SDS011;17297;54.022;10.760;2022-09-30T15:37:50;1.20;;;1.10;;
30515;SDS011;17297;54.022;10.760;2022-09-30T15:40:17;1.35;;;1.00;;
30515;SDS011;17297;54.022;10.760;2022-09-30T15:43:04;3.15;;;1.60;;
30515;SDS011;17297;54.022;10.760;2022-09-30T15:45:38;1.00;;;1.00;;
30515;SDS011;17297;54.022;10.760;2022-09-30T15:50:50;1.30;;;1.20;;
30515;SDS011;17297;54.022;10.760;2022-09-30T15:53:44;1.20;;;1.10;;
30515;SDS011;17297;54.022;10.760;2022-09-30T15:58:40;1.30;;;1.10;;
30515;SDS011;17297;54.022;10.760;2022-09-30T16:03:58;1.20;;;1.05;;
30515;SDS011;17297;54.022;10.760;2022-09-30T16:06:29;2.17;;;1.00;;
30515;SDS011;17297;54.022;10.760;2022-09-30T16:08:59;1.58;;;0.90;;
30515;SDS011;17297;54.022;10.760;2022-09-30T16:11:31;1.00;;;0.90;;
30515;SDS011;17297;54.022;10.760;2022-09-30T16:14:01;0.70;;;0.70;;
30515;SDS011;17297;54.022;10.760;2022-09-30T16:16:31;1.42;;;1.00;;
30515;SDS011;17297;54.022;10.760;2022-09-30T16:18:58;1.20;;;1.10;;
30515;SDS011;17297;54.022;10.760;2022-09-30T16:21:47;1.48;;;1.15;;
30515;SDS011;17297;54.022;10.760;2022-09-30T16:26:46;1.85;;;1.40;;
30515;SDS011;17297;54.022;10.760;2022-09-30T16:29:13;1.10;;;1.00;;
30515;SDS011;17297;54.022;10.760;2022-09-30T16:31:39;1.90;;;1.20;;
30515;SDS011;17297;54.022;10.760;2022-09-30T16:34:05;1.25;;;1.15;;
30515;SDS011;17297;54.022;10.760;2022-09-30T16:36:31;1.30;;;1.20;;
30515;SDS011;17297;54.022;10.760;2022-09-30T16:38:56;1.45;;;1.35;;
30515;SDS011;17297;54.022;10.760;2022-09-30T16:41:23;1.50;;;1.40;;
30515;SDS011;17297;54.022;10.760;2022-09-30T16:43:49;2.10;;;1.30;;
30515;SDS011;17297;54.022;10.760;2022-09-30T16:46:15;1.27;;;1.15;;
30515;SDS011;17297;54.022;10.760;2022-09-30T16:48:40;1.20;;;1.10;;
30515;SDS011;17297;54.022;10.760;2022-09-30T16:51:15;1.23;;;1.00;;
30515;SDS011;17297;54.022;10.760;2022-09-30T16:53:41;1.42;;;1.13;;
30515;SDS011;17297;54.022;10.760;2022-09-30T16:56:13;1.27;;;1.15;;
30515;SDS011;17297;54.022;10.760;2022-09-30T16:58:41;2.03;;;1.60;;
30515;SDS011;17297;54.022;10.760;2022-09-30T17:01:14;2.63;;;1.88;;
30515;SDS011;17297;54.022;10.760;2022-09-30T17:03:43;4.95;;;1.90;;
30515;SDS011;17297;54.022;10.760;2022-09-30T17:06:08;1.73;;;1.20;;
30515;SDS011;17297;54.022;10.760;2022-09-30T17:08:34;1.63;;;1.52;;
30515;SDS011;17297;54.022;10.760;2022-09-30T17:10:59;1.48;;;1.38;;
30515;SDS011;17297;54.022;10.760;2022-09-30T17:13:24;2.17;;;1.30;;
30515;SDS011;17297;54.022;10.760;2022-09-30T17:15:50;2.17;;;1.50;;
30515;SDS011;17297;54.022;10.760;2022-09-30T17:18:16;1.70;;;1.60;;
30515;SDS011;17297;54.022;10.760;2022-09-30T17:20:43;1.73;;;1.52;;
30515;SDS011;17297;54.022;10.760;2022-09-30T17:23:10;1.65;;;1.55;;
30515;SDS011;17297;54.022;10.760;2022-09-30T17:25:39;2.25;;;1.73;;
30515;SDS011;17297;54.022;10.760;2022-09-30T17:28:06;1.73;;;1.63;;
30515;SDS011;17297;54.022;10.760;2022-09-30T17:30:33;2.47;;;1.58;;
30515;SDS011;17297;54.022;10.760;2022-09-30T17:32:58;2.20;;;2.00;;
30515;SDS011;17297;54.022;10.760;2022-09-30T17:35:24;2.72;;;1.77;;
30515;SDS011;17297;54.022;10.760;2022-09-30T17:37:49;2.53;;;1.73;;
30515;SDS011;17297;54.022;10.760;2022-09-30T17:40:15;1.90;;;1.73;;
30515;SDS011;17297;54.022;10.760;2022-09-30T17:42:59;2.50;;;1.60;;